Weather at Yangzhou Taizhou Airport

Public forecast

Using degrees Celsius for public forecast. Weather courtesy of forecast.io.

Closest aviation weather report (METAR) to Yangzhou Taizhou Airport

Report is more than 6 hours old.

Closest report is Changzhou Benniu International Airport, 38.8 nm (71.8 km) S. Retrieved 2020/01/13 01:00 UTC (3 years ago):

ZSCG 130100Z 00000MPS 1200 R11/1000D BR NSC 01/00 Q1025 NOSIG

Closest aviation forecast (TAF) to Yangzhou Taizhou Airport

Forecast is more than 12 hours old.

Closest forecast is Nanjing Lukou International Airport, 66.0 nm (122.3 km) SW. Retrieved 2022/08/11 12:03 UTC (2 days ago):

TAF ZSNJ 110901Z 1112/1212 22004MPS 6000 SCT033 TX40/1206Z TN30/1121Z